Jimmy Lake, Canada
Current Conditions -  °F | °C
As of 4:00 AM on Friday 24 Oct 2014 (Local Time) from CWHN Reporting Station
Overcast Overcast  
Wind Chill: 33°   Ceiling: 2000
Heat Index: 41°   Visibility: 9mi
Dew Point: 34°   Wind: 16mph
Humidity: 76%   Direction: 270°W
Pressure: 29.47"   Gusts: 24mph
Location:  54.9°N, 109.97°W
Report Text: CWHN 241000Z AUTO 27014G21KT 9SM OVC020 05/01 A2947 RMK SLP997
Loading
Personal Weather Stations






























Interactive Weather Map New forecast layout! Learn more

10-Day Weather Forecast

Advertisements
Track Severe Weather on mobile